Time;durP1;ratioP1;P1;durP2;ratioP2;P2;SDS_P1;SDS_P2;PMS_P1;PMS_P2;Temp;Humidity;BMP_temperature;BMP_pressure;BME280_temperature;BME280_humidity;BME280_pressure;Samples;Min_cycle;Max_cycle;Signal;HPM_P1;HPM_P2
2021/06/29 00:01:57;;;;;;;6.53;6.03;;;23.30;89.80;;;;;;5031643;28;20241;-74
2021/06/29 00:04:22;;;;;;;6.53;5.93;;;23.30;89.80;;;;;;5031674;28;20257;-71
2021/06/29 00:06:49;;;;;;;7.13;6.40;;;23.30;90.00;;;;;;5031512;28;20572;-73
2021/06/29 00:09:15;;;;;;;6.57;6.07;;;23.30;90.00;;;;;;5031656;28;20162;-72
2021/06/29 00:11:41;;;;;;;7.20;6.60;;;23.40;90.00;;;;;;5031411;28;20423;-72
2021/06/29 00:14:07;;;;;;;7.43;6.83;;;23.30;90.00;;;;;;5031484;28;20404;-72
2021/06/29 00:16:33;;;;;;;6.70;6.20;;;23.40;90.00;;;;;;5031363;28;20421;-71
2021/06/29 00:18:58;;;;;;;6.57;6.07;;;23.40;90.00;;;;;;5031624;28;20248;-71
2021/06/29 00:21:24;;;;;;;6.93;6.43;;;23.40;89.70;;;;;;5031386;28;20707;-72
2021/06/29 00:23:49;;;;;;;7.20;6.70;;;23.40;89.40;;;;;;5031550;28;20178;-73
2021/06/29 00:26:15;;;;;;;7.30;6.80;;;23.40;89.60;;;;;;5031278;28;20172;-72
2021/06/29 00:28:41;;;;;;;7.37;6.70;;;23.40;89.80;;;;;;5031254;28;20520;-72
2021/06/29 00:31:07;;;;;;;6.63;6.20;;;23.40;90.00;;;;;;5029850;28;20465;-72
2021/06/29 00:33:32;;;;;;;6.93;6.40;;;23.30;90.10;;;;;;5026775;28;20157;-74
2021/06/29 00:35:58;;;;;;;7.60;7.00;;;23.30;90.20;;;;;;5031063;28;20404;-74
2021/06/29 00:38:23;;;;;;;7.13;6.63;;;23.30;90.30;;;;;;5031046;28;20643;-73
2021/06/29 00:40:50;;;;;;;8.00;7.30;;;23.20;90.40;;;;;;5031235;28;20172;-78
2021/06/29 00:43:16;;;;;;;7.47;6.87;;;23.20;90.60;;;;;;5031118;28;20238;-75
2021/06/29 00:45:41;;;;;;;6.93;6.43;;;23.20;90.70;;;;;;5027257;28;20429;-73
2021/06/29 00:48:07;;;;;;;7.77;7.17;;;23.20;90.70;;;;;;5030540;28;20203;-73
2021/06/29 00:50:33;;;;;;;7.63;6.80;;;23.10;91.00;;;;;;5030950;28;20591;-73
2021/06/29 00:52:58;;;;;;;7.47;6.73;;;23.00;91.10;;;;;;5030955;28;20185;-73
2021/06/29 00:55:24;;;;;;;8.23;7.53;;;23.00;91.30;;;;;;5029151;28;20170;-73
2021/06/29 00:57:51;;;;;;;7.73;7.23;;;23.00;91.40;;;;;;5030745;28;20182;-73
2021/06/29 01:00:18;;;;;;;7.13;6.53;;;23.00;91.70;;;;;;5032102;28;20272;-73
2021/06/29 01:02:43;;;;;;;7.67;7.13;;;22.90;91.80;;;;;;5032888;28;20447;-73
2021/06/29 01:05:10;;;;;;;7.13;6.43;;;22.90;91.90;;;;;;5034495;28;20409;-73
2021/06/29 01:07:35;;;;;;;7.00;6.40;;;22.80;92.10;;;;;;5034296;28;20199;-73
2021/06/29 01:10:08;;;;;;;7.30;6.70;;;22.80;92.30;;;;;;5034597;28;20900;-73
2021/06/29 01:12:35;;;;;;;6.60;6.10;;;22.70;92.50;;;;;;5034234;28;20815;-73
2021/06/29 01:15:01;;;;;;;7.17;6.57;;;22.70;92.80;;;;;;5034456;28;20394;-73
2021/06/29 01:17:27;;;;;;;8.10;7.50;;;22.60;93.00;;;;;;5034463;28;20410;-73
2021/06/29 01:19:53;;;;;;;7.90;7.20;;;22.50;93.20;;;;;;5035605;28;20473;-74
2021/06/29 01:22:20;;;;;;;7.90;7.30;;;22.50;93.40;;;;;;5035405;28;20453;-73
2021/06/29 01:24:51;;;;;;;6.47;5.97;;;22.50;93.60;;;;;;5036965;28;20657;-74
2021/06/29 01:27:33;;;;;;;7.23;6.63;;;22.50;93.70;;;;;;5037804;28;20588;-73
2021/06/29 01:32:27;;;;;;;8.33;7.67;;;22.40;94.20;;;;;;5037589;28;20424;-74
2021/06/29 01:34:53;;;;;;;7.97;7.27;;;22.40;94.50;;;;;;5033974;28;20174;-73
2021/06/29 01:37:19;;;;;;;7.87;7.27;;;22.30;94.60;;;;;;5035014;28;20449;-74
2021/06/29 01:40:06;;;;;;;7.77;6.97;;;22.30;94.80;;;;;;5037196;28;20497;-75
2021/06/29 01:42:31;;;;;;;6.80;6.30;;;22.30;94.90;;;;;;5031877;28;20495;-72
2021/06/29 01:44:58;;;;;;;6.87;6.37;;;22.30;95.10;;;;;;5033852;28;20509;-73
2021/06/29 01:47:26;;;;;;;9.20;8.13;;;22.20;95.20;;;;;;5033235;28;20202;-73
2021/06/29 01:49:52;;;;;;;8.60;7.90;;;22.20;95.30;;;;;;5033756;28;20832;-73
2021/06/29 01:52:17;;;;;;;8.73;7.10;;;22.20;95.50;;;;;;5033746;28;20441;-73
2021/06/29 01:54:44;;;;;;;8.60;8.00;;;22.20;95.70;;;;;;5031140;28;20250;-72
2021/06/29 01:57:17;;;;;;;9.00;8.20;;;22.20;95.80;;;;;;5013950;28;20218;-72
2021/06/29 01:59:47;;;;;;;8.00;6.90;;;22.20;96.00;;;;;;5024234;28;20789;-73
2021/06/29 02:02:12;;;;;;;10.03;8.97;;;22.20;96.10;;;;;;5021567;28;20461;-73
2021/06/29 02:04:39;;;;;;;8.27;7.57;;;22.10;96.30;;;;;;5025375;28;20835;-73
2021/06/29 02:07:04;;;;;;;7.90;7.30;;;22.10;96.50;;;;;;5013528;28;20206;-73
2021/06/29 02:09:30;;;;;;;8.50;7.80;;;22.10;96.80;;;;;;5022828;28;20788;-73
2021/06/29 02:11:55;;;;;;;7.60;7.00;;;22.10;97.00;;;;;;5031759;28;20225;-72
2021/06/29 02:14:21;;;;;;;8.10;7.30;;;22.10;97.10;;;;;;5031511;28;20650;-72
2021/06/29 02:16:46;;;;;;;8.93;8.13;;;22.00;97.30;;;;;;5032787;28;20370;-73
2021/06/29 02:19:12;;;;;;;9.13;8.43;;;22.00;97.50;;;;;;5033067;28;20169;-72
2021/06/29 02:21:37;;;;;;;9.63;8.10;;;22.00;97.70;;;;;;5032684;28;20838;-73
2021/06/29 02:24:03;;;;;;;7.57;6.87;;;21.90;97.90;;;;;;5033070;28;20163;-73
2021/06/29 02:26:29;;;;;;;8.10;7.40;;;22.00;98.10;;;;;;5032840;28;20169;-73
2021/06/29 02:28:54;;;;;;;8.10;7.50;;;22.00;98.20;;;;;;5033023;28;20449;-73
2021/06/29 02:31:19;;;;;;;8.97;8.20;;;21.90;98.40;;;;;;5033246;28;20226;-73
2021/06/29 02:33:45;;;;;;;9.40;8.67;;;21.90;98.50;;;;;;5033622;28;20182;-72
2021/06/29 02:36:10;;;;;;;8.30;7.57;;;22.00;98.70;;;;;;5033081;28;20176;-72
2021/06/29 02:38:36;;;;;;;9.10;8.40;;;22.00;98.80;;;;;;5033216;28;20176;-72
2021/06/29 02:41:03;;;;;;;10.83;8.93;;;22.10;98.90;;;;;;5025803;28;20179;-72
2021/06/29 02:43:28;;;;;;;7.90;7.30;;;22.10;98.80;;;;;;5027910;28;20297;-72
2021/06/29 02:45:54;;;;;;;8.33;7.73;;;22.10;98.90;;;;;;5013339;28;20414;-72
2021/06/29 02:48:20;;;;;;;8.30;7.60;;;22.10;98.90;;;;;;5023366;28;20224;-72
2021/06/29 02:50:45;;;;;;;8.00;7.40;;;22.20;99.00;;;;;;5032778;28;20439;-72
2021/06/29 02:53:11;;;;;;;7.83;7.13;;;22.20;99.00;;;;;;5032744;28;20217;-72
2021/06/29 02:55:37;;;;;;;8.73;7.83;;;22.30;99.00;;;;;;5032823;28;20185;-72
2021/06/29 02:58:02;;;;;;;9.17;7.90;;;22.30;99.00;;;;;;5032857;28;20174;-72
2021/06/29 03:00:28;;;;;;;9.37;8.57;;;22.30;99.20;;;;;;5032765;28;20176;-72
2021/06/29 03:02:53;;;;;;;9.80;9.00;;;22.30;99.70;;;;;;5032668;28;20244;-72
2021/06/29 03:05:19;;;;;;;8.43;7.73;;;22.30;99.40;;;;;;5032778;28;20229;-72
2021/06/29 03:07:45;;;;;;;7.40;6.80;;;22.30;99.40;;;;;;5032621;28;20208;-72
2021/06/29 03:10:11;;;;;;;8.87;8.13;;;22.40;99.50;;;;;;5032522;28;20213;-72
2021/06/29 03:12:37;;;;;;;8.67;7.80;;;22.40;99.60;;;;;;5032433;28;20193;-72
2021/06/29 03:15:05;;;;;;;9.30;8.40;;;22.40;99.90;;;;;;5032582;28;20483;-72
2021/06/29 03:17:31;;;;;;;9.10;8.37;;;22.40;99.90;;;;;;5032439;28;20659;-72
2021/06/29 03:19:56;;;;;;;8.00;7.30;;;22.40;99.90;;;;;;5032559;28;20407;-72
2021/06/29 03:22:22;;;;;;;8.80;8.00;;;22.40;99.90;;;;;;5032052;28;20216;-72
2021/06/29 03:24:49;;;;;;;8.80;8.03;;;22.40;99.90;;;;;;5032049;28;20173;-72
2021/06/29 03:27:15;;;;;;;8.90;8.10;;;22.40;99.90;;;;;;5032082;28;20199;-72
2021/06/29 03:29:41;;;;;;;8.77;7.93;;;22.40;99.90;;;;;;5032290;28;20401;-72
2021/06/29 03:32:07;;;;;;;8.07;7.47;;;22.50;99.90;;;;;;5032147;28;20853;-72
2021/06/29 03:34:33;;;;;;;7.97;7.37;;;22.40;99.90;;;;;;5032128;28;20169;-72
2021/06/29 03:37:02;;;;;;;8.77;7.97;;;22.50;99.90;;;;;;5032065;28;20412;-72
2021/06/29 03:39:29;;;;;;;8.53;7.73;;;22.50;99.90;;;;;;5032130;28;20182;-72
2021/06/29 03:41:54;;;;;;;9.47;8.47;;;22.50;99.90;;;;;;5031942;28;20439;-72
2021/06/29 03:44:20;;;;;;;8.67;7.90;;;22.50;99.90;;;;;;5031983;28;20402;-72
2021/06/29 03:46:46;;;;;;;8.83;7.80;;;22.50;99.90;;;;;;5031764;28;20177;-72
2021/06/29 03:49:12;;;;;;;8.03;7.40;;;22.50;99.90;;;;;;5031897;28;20253;-72
2021/06/29 03:51:37;;;;;;;8.90;8.10;;;22.50;99.90;;;;;;5031767;28;20609;-72
2021/06/29 03:54:04;;;;;;;9.40;8.60;;;22.50;99.90;;;;;;5031731;28;20414;-72
2021/06/29 03:56:31;;;;;;;8.60;7.80;;;22.50;99.90;;;;;;5031827;28;20195;-73
2021/06/29 03:59:05;;;;;;;9.30;8.40;;;22.50;99.90;;;;;;5032060;28;20414;-73
2021/06/29 04:01:31;;;;;;;8.87;7.60;;;22.50;99.90;;;;;;5013972;28;20439;-73
2021/06/29 04:03:57;;;;;;;9.97;8.97;;;22.50;99.90;;;;;;5031891;28;20408;-73
2021/06/29 04:06:24;;;;;;;9.00;8.30;;;22.50;99.90;;;;;;5031790;28;20184;-73
2021/06/29 04:08:51;;;;;;;9.50;8.70;;;22.50;99.90;;;;;;5031667;28;20552;-73
2021/06/29 04:11:17;;;;;;;9.50;8.80;;;22.50;99.90;;;;;;5031663;28;20433;-73
2021/06/29 04:13:42;;;;;;;9.57;8.77;;;22.50;99.90;;;;;;5031588;28;20412;-73
2021/06/29 04:16:08;;;;;;;8.93;8.13;;;22.60;99.90;;;;;;5031613;28;20632;-73
2021/06/29 04:18:33;;;;;;;9.67;8.77;;;22.60;99.90;;;;;;5013749;28;20255;-72
2021/06/29 04:20:59;;;;;;;8.63;7.83;;;22.60;99.90;;;;;;5031168;28;20619;-72
2021/06/29 04:23:24;;;;;;;8.80;8.00;;;22.70;99.90;;;;;;5031286;28;20195;-72
2021/06/29 04:25:50;;;;;;;8.57;7.87;;;22.70;99.90;;;;;;5013760;28;20173;-73
2021/06/29 04:28:15;;;;;;;9.60;8.53;;;22.70;99.90;;;;;;5031235;28;20586;-73
2021/06/29 04:30:41;;;;;;;9.93;9.00;;;22.80;99.90;;;;;;5031446;28;20178;-73
2021/06/29 04:33:06;;;;;;;10.40;7.67;;;22.80;99.90;;;;;;5031289;28;20238;-73
2021/06/29 04:35:32;;;;;;;10.00;9.20;;;22.80;99.90;;;;;;5030331;28;20307;-72
2021/06/29 04:37:57;;;;;;;9.23;8.50;;;22.90;99.90;;;;;;5031370;28;20175;-72
2021/06/29 04:40:23;;;;;;;9.40;8.50;;;23.10;99.90;;;;;;5031327;28;20661;-72
2021/06/29 04:42:48;;;;;;;9.00;8.20;;;23.10;99.90;;;;;;5031105;28;20203;-71
2021/06/29 04:45:14;;;;;;;8.90;8.00;;;23.20;99.90;;;;;;5031276;28;20172;-72
2021/06/29 04:47:44;;;;;;;9.70;8.90;;;23.20;99.90;;;;;;5031090;28;20539;-72
2021/06/29 04:50:11;;;;;;;11.60;8.67;;;23.30;99.90;;;;;;5031129;28;20430;-73
2021/06/29 04:52:36;;;;;;;8.17;7.47;;;23.30;99.90;;;;;;5031011;28;20864;-73
2021/06/29 04:55:03;;;;;;;8.60;7.80;;;23.50;99.90;;;;;;5028838;28;20466;-73
2021/06/29 04:57:28;;;;;;;8.90;7.63;;;23.40;99.90;;;;;;5013568;28;20676;-73
2021/06/29 04:59:54;;;;;;;8.63;7.57;;;23.60;99.90;;;;;;5015321;28;20431;-72
2021/06/29 05:02:19;;;;;;;9.40;8.60;;;23.50;99.90;;;;;;5030907;28;20196;-71
2021/06/29 05:04:44;;;;;;;9.37;8.43;;;23.70;99.90;;;;;;5030849;28;20264;-71
2021/06/29 05:07:10;;;;;;;9.00;8.20;;;24.00;99.90;;;;;;5031058;28;20221;-73
2021/06/29 05:09:35;;;;;;;9.07;8.17;;;24.10;99.90;;;;;;5031104;28;20177;-72
2021/06/29 05:12:01;;;;;;;10.00;8.17;;;23.80;99.90;;;;;;5031058;28;20197;-73
2021/06/29 05:14:26;;;;;;;9.97;8.97;;;24.20;99.90;;;;;;5031232;28;20179;-73
2021/06/29 05:16:52;;;;;;;10.30;9.10;;;24.60;99.90;;;;;;5030823;28;20177;-73
2021/06/29 05:19:17;;;;;;;10.73;8.93;;;24.70;99.90;;;;;;5030968;28;20179;-72
2021/06/29 05:21:43;;;;;;;9.23;8.00;;;25.00;99.90;;;;;;5025533;28;20221;-72
2021/06/29 05:24:09;;;;;;;9.37;8.53;;;25.20;99.80;;;;;;5018616;28;20171;-72
2021/06/29 05:26:34;;;;;;;11.83;8.50;;;25.30;99.30;;;;;;5010948;28;20583;-72
2021/06/29 05:29:01;;;;;;;8.47;7.67;;;25.20;99.50;;;;;;5029754;28;20201;-72
2021/06/29 05:31:26;;;;;;;8.40;7.70;;;25.50;99.40;;;;;;5030638;28;20195;-73
2021/06/29 05:33:52;;;;;;;11.90;7.90;;;26.00;98.80;;;;;;5030633;28;20402;-73
2021/06/29 05:36:17;;;;;;;8.40;7.70;;;25.80;98.00;;;;;;5030856;28;20205;-72
2021/06/29 05:38:43;;;;;;;9.70;8.90;;;25.30;98.90;;;;;;5030608;28;20224;-72
2021/06/29 05:41:08;;;;;;;10.00;8.97;;;25.10;99.30;;;;;;5030135;28;20703;-72
2021/06/29 05:43:34;;;;;;;8.53;7.80;;;25.60;99.10;;;;;;5030483;28;20536;-73
2021/06/29 05:45:59;;;;;;;8.63;8.03;;;25.30;99.00;;;;;;5031153;28;20173;-72
2021/06/29 05:48:30;;;;;;;9.83;8.50;;;25.20;99.50;;;;;;5033761;28;20206;-72
2021/06/29 05:50:56;;;;;;;9.87;8.83;;;25.20;99.90;;;;;;5033985;28;20171;-72
2021/06/29 05:53:21;;;;;;;9.73;8.80;;;25.30;99.40;;;;;;5034030;28;20412;-72
2021/06/29 05:55:47;;;;;;;9.10;8.30;;;25.00;99.70;;;;;;5034041;28;20218;-72
2021/06/29 05:58:12;;;;;;;10.27;9.23;;;25.00;99.90;;;;;;5033867;28;20660;-72
2021/06/29 06:00:38;;;;;;;8.80;7.90;;;24.90;99.90;;;;;;5033829;28;20174;-73
2021/06/29 06:03:03;;;;;;;9.73;9.03;;;25.00;99.90;;;;;;5032231;28;20629;-72
2021/06/29 06:05:29;;;;;;;8.80;7.93;;;24.90;99.90;;;;;;5033822;28;20165;-72
2021/06/29 06:07:55;;;;;;;9.40;8.60;;;25.00;99.90;;;;;;5033571;28;20220;-72
2021/06/29 06:10:20;;;;;;;8.90;8.23;;;25.00;99.90;;;;;;5032499;28;20647;-72
2021/06/29 06:12:46;;;;;;;9.40;8.70;;;25.30;99.90;;;;;;5033647;28;20205;-73
2021/06/29 06:15:11;;;;;;;8.43;7.73;;;26.00;99.80;;;;;;5033772;28;20178;-73
2021/06/29 06:17:37;;;;;;;9.67;8.80;;;26.90;98.30;;;;;;5032240;28;20242;-72
2021/06/29 06:20:08;;;;;;;8.80;8.10;;;27.00;97.80;;;;;;5034027;28;20250;-73
2021/06/29 06:22:33;;;;;;;10.63;8.03;;;27.90;97.30;;;;;;5033153;28;20496;-73
2021/06/29 06:24:59;;;;;;;9.30;8.60;;;27.90;96.70;;;;;;5033344;28;20469;-72
2021/06/29 06:27:25;;;;;;;8.83;8.23;;;28.50;95.70;;;;;;5033340;28;20191;-73
2021/06/29 06:29:51;;;;;;;8.73;8.03;;;29.50;94.20;;;;;;5033590;28;20274;-73
2021/06/29 06:32:16;;;;;;;12.73;8.57;;;29.60;93.90;;;;;;5033483;28;20478;-73
2021/06/29 06:34:42;;;;;;;9.30;8.50;;;28.90;94.50;;;;;;5033419;28;20167;-73
2021/06/29 06:37:07;;;;;;;9.03;8.27;;;28.80;94.70;;;;;;5015712;28;20238;-73
2021/06/29 06:39:33;;;;;;;11.00;8.77;;;29.20;93.90;;;;;;5033435;28;20207;-72
2021/06/29 06:41:58;;;;;;;10.30;9.20;;;29.10;94.50;;;;;;5033195;28;20199;-72
2021/06/29 06:44:24;;;;;;;9.57;8.87;;;27.80;95.70;;;;;;5033277;28;20175;-72
2021/06/29 06:46:50;;;;;;;9.03;8.33;;;28.70;95.50;;;;;;5032837;28;20175;-73
2021/06/29 06:49:15;;;;;;;9.90;9.00;;;28.90;94.60;;;;;;5033077;28;20159;-73
2021/06/29 06:51:41;;;;;;;10.23;9.33;;;29.20;95.10;;;;;;5032865;28;20198;-72
2021/06/29 06:54:06;;;;;;;9.00;8.30;;;30.00;93.80;;;;;;5033017;28;20174;-73
2021/06/29 06:56:32;;;;;;;11.37;9.20;;;29.20;94.40;;;;;;5032872;28;20175;-73
2021/06/29 06:58:57;;;;;;;10.03;9.13;;;29.10;94.50;;;;;;5032062;28;20214;-73
2021/06/29 07:01:23;;;;;;;10.20;9.30;;;28.60;94.80;;;;;;5032965;28;20678;-73
2021/06/29 07:03:48;;;;;;;10.50;9.40;;;29.20;94.30;;;;;;5033029;28;20190;-74
2021/06/29 07:06:14;;;;;;;10.40;9.37;;;30.00;92.90;;;;;;5032959;28;20167;-73
2021/06/29 07:08:40;;;;;;;9.13;8.43;;;29.90;93.10;;;;;;5032693;28;20727;-74
2021/06/29 07:11:07;;;;;;;9.93;9.03;;;30.70;93.30;;;;;;5032495;28;20187;-73
2021/06/29 07:13:33;;;;;;;10.20;9.27;;;31.70;92.00;;;;;;5032771;28;20410;-74
2021/06/29 07:15:58;;;;;;;9.77;8.97;;;31.70;91.00;;;;;;5031810;28;20422;-73
2021/06/29 07:18:24;;;;;;;11.80;9.37;;;31.00;92.40;;;;;;5032429;28;20754;-73
2021/06/29 07:20:49;;;;;;;9.70;8.93;;;30.80;90.80;;;;;;5032472;28;20175;-73
2021/06/29 07:23:17;;;;;;;10.00;9.00;;;31.10;91.30;;;;;;5032128;28;20272;-73
2021/06/29 07:25:43;;;;;;;11.90;8.67;;;31.40;90.90;;;;;;5032287;28;20175;-73
2021/06/29 07:28:09;;;;;;;9.50;8.63;;;31.30;90.50;;;;;;5032248;28;20449;-73
2021/06/29 07:30:35;;;;;;;10.80;8.93;;;31.20;90.40;;;;;;5032088;28;20172;-73
2021/06/29 07:33:03;;;;;;;10.13;9.33;;;30.60;91.40;;;;;;5031915;28;20430;-73
2021/06/29 07:35:30;;;;;;;9.57;8.73;;;31.90;89.40;;;;;;5032166;28;20407;-73
2021/06/29 07:37:55;;;;;;;9.63;8.83;;;32.20;88.50;;;;;;5031925;28;20426;-73
2021/06/29 07:40:21;;;;;;;9.40;8.70;;;31.60;90.40;;;;;;5029739;28;20422;-73
2021/06/29 07:42:46;;;;;;;8.83;8.13;;;32.00;86.50;;;;;;5032185;28;20562;-72
2021/06/29 07:45:12;;;;;;;8.90;8.30;;;31.60;87.60;;;;;;5032032;28;20176;-73
2021/06/29 07:47:39;;;;;;;9.03;7.90;;;31.60;87.60;;;;;;5032314;28;20199;-73
2021/06/29 07:50:07;;;;;;;11.23;9.10;;;32.40;86.50;;;;;;5032400;28;20220;-73
2021/06/29 07:52:33;;;;;;;9.87;9.17;;;31.60;88.50;;;;;;5031875;28;20437;-70
2021/06/29 07:54:58;;;;;;;11.00;8.60;;;30.30;90.20;;;;;;5032057;28;20410;-73
2021/06/29 07:57:24;;;;;;;9.30;8.50;;;29.80;91.10;;;;;;5031795;28;20414;-71
2021/06/29 07:59:49;;;;;;;11.10;10.00;;;30.20;91.50;;;;;;5031872;28;20189;-73
2021/06/29 08:02:15;;;;;;;10.53;9.43;;;31.00;89.50;;;;;;5031734;28;20617;-74
2021/06/29 08:04:41;;;;;;;10.63;9.57;;;31.40;88.30;;;;;;5031783;28;20535;-73
2021/06/29 08:07:07;;;;;;;10.10;9.30;;;31.60;86.60;;;;;;5031464;28;20207;-74
2021/06/29 08:09:32;;;;;;;8.93;8.30;;;30.80;89.60;;;;;;5031763;28;20183;-73
2021/06/29 08:11:58;;;;;;;10.60;9.60;;;31.60;89.20;;;;;;5025070;28;20199;-74
2021/06/29 08:14:23;;;;;;;9.60;8.80;;;31.70;87.60;;;;;;5014779;28;20187;-74
2021/06/29 08:16:49;;;;;;;8.03;7.43;;;31.70;85.80;;;;;;5025022;28;20172;-74
2021/06/29 08:19:14;;;;;;;7.83;7.23;;;31.00;88.50;;;;;;5031304;28;20172;-73
2021/06/29 08:21:40;;;;;;;8.83;7.93;;;31.20;88.00;;;;;;5031167;28;20183;-73
2021/06/29 08:24:06;;;;;;;9.00;8.20;;;31.40;87.30;;;;;;5031523;28;20167;-73
2021/06/29 08:26:32;;;;;;;7.90;7.37;;;32.00;84.50;;;;;;5031325;28;20159;-73
2021/06/29 08:28:57;;;;;;;8.07;7.43;;;32.00;83.50;;;;;;5030802;28;20990;-74
2021/06/29 08:31:24;;;;;;;9.03;7.93;;;32.10;83.80;;;;;;5030931;28;20246;-74
2021/06/29 08:33:53;;;;;;;8.23;7.50;;;32.10;84.20;;;;;;5031308;28;20209;-73
2021/06/29 08:36:19;;;;;;;9.10;8.30;;;32.50;82.60;;;;;;5031191;28;20414;-73
2021/06/29 08:38:44;;;;;;;8.80;7.40;;;32.70;81.40;;;;;;5028731;28;20517;-73
2021/06/29 08:41:11;;;;;;;9.00;8.40;;;32.20;81.80;;;;;;5030783;28;20410;-73
2021/06/29 08:43:38;;;;;;;9.17;7.87;;;31.40;84.30;;;;;;5030928;28;20171;-73
2021/06/29 08:46:04;;;;;;;8.27;7.43;;;31.30;84.00;;;;;;5031075;28;20446;-73
2021/06/29 08:48:29;;;;;;;8.63;7.83;;;31.50;84.50;;;;;;5029665;28;20485;-73
2021/06/29 08:50:55;;;;;;;9.43;7.73;;;31.70;83.20;;;;;;5030916;28;20688;-73
2021/06/29 08:53:21;;;;;;;9.33;8.57;;;31.80;82.80;;;;;;5030999;28;20191;-74
2021/06/29 08:55:48;;;;;;;9.80;8.87;;;32.00;82.80;;;;;;5031148;28;20167;-74
2021/06/29 08:58:19;;;;;;;8.27;7.57;;;31.60;83.20;;;;;;5031307;28;20255;-73
2021/06/29 09:00:45;;;;;;;9.13;8.23;;;31.40;85.90;;;;;;5031383;28;20411;-73
2021/06/29 09:03:11;;;;;;;9.07;8.47;;;30.90;86.60;;;;;;5031024;28;20531;-73
2021/06/29 09:05:42;;;;;;;8.60;7.80;;;31.20;87.00;;;;;;5030731;28;20414;-73
2021/06/29 09:08:09;;;;;;;12.03;11.07;;;31.00;85.60;;;;;;5030773;28;21049;-70
2021/06/29 09:10:40;;;;;;;8.00;7.40;;;30.90;87.20;;;;;;5031029;28;20489;-74
2021/06/29 09:13:06;;;;;;;10.67;7.80;;;31.00;86.40;;;;;;5026698;28;20916;-74
2021/06/29 09:15:44;;;;;;;10.10;7.20;;;31.00;89.00;;;;;;5031869;28;20398;-72
2021/06/29 09:18:14;;;;;;;8.60;7.73;;;30.40;88.30;;;;;;5031183;28;20402;-73
2021/06/29 09:20:44;;;;;;;9.00;7.10;;;30.50;87.40;;;;;;5030479;28;20542;-72
2021/06/29 09:23:28;;;;;;;8.13;7.53;;;30.50;89.10;;;;;;5034374;28;20452;-72
2021/06/29 09:26:06;;;;;;;8.57;7.93;;;30.60;89.20;;;;;;5034633;28;20406;-73
2021/06/29 09:28:35;;;;;;;8.97;8.00;;;31.20;86.10;;;;;;5039703;28;20449;-73
2021/06/29 09:31:12;;;;;;;7.53;6.83;;;31.50;84.80;;;;;;5034232;28;20409;-73
2021/06/29 09:33:40;;;;;;;8.30;7.27;;;31.50;84.10;;;;;;5034581;28;20408;-72
2021/06/29 09:36:09;;;;;;;7.40;6.80;;;30.80;84.70;;;;;;5034355;28;20410;-73
2021/06/29 09:38:37;;;;;;;9.10;8.40;;;31.10;85.60;;;;;;5034285;28;20885;-73
2021/06/29 09:41:04;;;;;;;8.17;7.23;;;30.80;85.70;;;;;;5034140;28;20839;-73
2021/06/29 09:43:34;;;;;;;7.67;7.00;;;30.60;85.60;;;;;;5034909;28;20409;-73
2021/06/29 09:46:01;;;;;;;8.13;7.43;;;30.00;87.00;;;;;;5034157;28;20410;-73
2021/06/29 09:48:39;;;;;;;7.70;7.20;;;29.80;88.20;;;;;;5034089;28;20453;-73
2021/06/29 09:51:12;;;;;;;8.60;7.77;;;30.10;86.90;;;;;;5034104;28;20421;-73
2021/06/29 09:53:42;;;;;;;8.73;7.93;;;30.50;86.20;;;;;;5026670;28;20494;-73
2021/06/29 09:56:12;;;;;;;7.50;6.90;;;30.20;88.10;;;;;;5022343;28;20445;-73
2021/06/29 09:58:40;;;;;;;10.37;9.50;;;29.80;89.40;;;;;;5042640;28;20434;-73
2021/06/29 10:01:07;;;;;;;9.13;8.23;;;30.10;87.00;;;;;;5033897;28;20402;-73
2021/06/29 10:03:37;;;;;;;10.53;9.63;;;30.10;85.80;;;;;;5033899;28;20789;-74
2021/06/29 10:06:10;;;;;;;7.80;7.20;;;29.70;87.20;;;;;;5033619;28;20763;-71
2021/06/29 10:08:37;;;;;;;9.90;8.30;;;29.90;85.90;;;;;;5027780;28;20453;-72
2021/06/29 10:11:09;;;;;;;7.80;7.20;;;30.20;86.40;;;;;;5022844;28;20482;-73
2021/06/29 10:13:41;;;;;;;8.57;7.97;;;30.50;85.20;;;;;;5015338;28;20450;-74
2021/06/29 10:16:08;;;;;;;7.53;7.00;;;30.70;85.50;;;;;;5033842;28;20410;-73
2021/06/29 10:18:39;;;;;;;9.03;8.23;;;30.30;87.80;;;;;;5019784;28;20431;-74
2021/06/29 10:21:18;;;;;;;7.30;6.73;;;30.60;85.90;;;;;;5025878;28;20416;-72
2021/06/29 10:23:45;;;;;;;7.33;6.83;;;30.70;85.70;;;;;;5032554;28;20426;-73
2021/06/29 10:26:12;;;;;;;6.93;6.43;;;31.00;85.90;;;;;;5033548;28;20413;-72
2021/06/29 10:28:40;;;;;;;9.63;7.60;;;31.10;85.00;;;;;;5028287;28;20454;-73
2021/06/29 10:31:06;;;;;;;7.27;6.77;;;31.30;85.80;;;;;;5031108;28;20410;-72
2021/06/29 10:33:33;;;;;;;7.20;6.60;;;31.50;85.90;;;;;;5029592;28;20454;-74
2021/06/29 10:36:01;;;;;;;7.80;7.10;;;31.40;85.20;;;;;;5013775;28;20192;-74
2021/06/29 10:38:27;;;;;;;7.87;7.30;;;31.20;83.70;;;;;;5025790;28;20438;-72
2021/06/29 10:40:54;;;;;;;8.10;7.53;;;31.20;83.10;;;;;;5029678;28;20426;-73
2021/06/29 10:43:21;;;;;;;8.27;7.50;;;31.40;82.10;;;;;;5024324;28;20458;-74
2021/06/29 10:45:48;;;;;;;8.23;7.63;;;31.10;83.90;;;;;;5030645;28;20422;-74
2021/06/29 10:48:26;;;;;;;8.10;7.50;;;30.90;85.10;;;;;;5025342;28;20497;-74
2021/06/29 10:50:54;;;;;;;9.87;8.97;;;31.00;83.80;;;;;;5032205;28;20444;-73
2021/06/29 10:53:31;;;;;;;8.53;7.93;;;30.50;86.50;;;;;;5028730;28;20496;-74
2021/06/29 10:55:57;;;;;;;8.10;7.50;;;30.50;86.50;;;;;;5032973;28;20398;-73
2021/06/29 10:58:39;;;;;;;8.73;8.00;;;30.50;86.90;;;;;;5032604;28;20422;-72
2021/06/29 11:01:22;;;;;;;8.57;7.87;;;30.30;88.20;;;;;;5032684;28;20969;-71
2021/06/29 11:03:48;;;;;;;11.03;9.00;;;30.40;87.40;;;;;;5032895;28;20414;-71
2021/06/29 11:06:29;;;;;;;8.63;8.03;;;30.00;87.60;;;;;;5032925;28;20416;-71
2021/06/29 11:08:57;;;;;;;8.93;8.30;;;30.00;86.70;;;;;;5034247;28;20453;-71
2021/06/29 11:11:22;;;;;;;8.63;7.97;;;29.60;88.00;;;;;;5033837;28;20433;-72
2021/06/29 11:13:48;;;;;;;9.17;8.40;;;29.50;88.10;;;;;;5034568;28;20414;-74
2021/06/29 11:16:14;;;;;;;12.17;9.60;;;29.50;90.50;;;;;;5034770;28;20267;-72
2021/06/29 11:18:40;;;;;;;11.63;10.40;;;28.80;96.20;;;;;;5033116;28;20531;-72
2021/06/29 11:21:09;;;;;;;10.57;9.77;;;28.40;98.80;;;;;;5032337;28;20562;-71
2021/06/29 11:23:36;;;;;;;8.07;7.27;;;27.10;99.90;;;;;;5031974;28;20198;-71
2021/06/29 11:26:19;;;;;;;10.30;8.90;;;25.50;99.90;;;;;;5032193;28;20860;-70
2021/06/29 11:28:49;;;;;;;7.83;7.10;;;23.90;99.90;;;;;;5032230;28;20935;-70
2021/06/29 11:31:21;;;;;;;8.37;7.40;;;22.80;99.90;;;;;;5032575;28;20517;-70
2021/06/29 11:33:56;;;;;;;9.70;8.90;;;22.10;99.90;;;;;;5032033;28;20422;-70
2021/06/29 11:36:43;;;;;;;10.90;10.00;;;21.70;99.90;;;;;;5031913;28;20817;-70
2021/06/29 11:39:18;;;;;;;10.13;9.27;;;21.40;99.90;;;;;;5011898;28;20415;-71
2021/06/29 11:42:09;;;;;;;8.47;7.77;;;21.40;99.90;;;;;;5012867;28;20429;-72
2021/06/29 11:44:38;;;;;;;7.77;7.07;;;21.40;99.90;;;;;;5012241;28;20434;-69
2021/06/29 11:47:07;;;;;;;6.63;6.10;;;21.50;99.90;;;;;;5029583;28;20417;-70
2021/06/29 11:49:41;;;;;;;6.87;6.27;;;21.90;99.90;;;;;;5032170;28;20419;-71
2021/06/29 11:52:19;;;;;;;7.33;6.73;;;22.30;99.90;;;;;;5032459;28;20545;-71
2021/06/29 11:55:17;;;;;;;6.97;6.37;;;22.70;99.90;;;;;;5024550;28;20404;-71
2021/06/29 11:57:45;;;;;;;6.10;5.60;;;23.10;99.90;;;;;;5031113;28;20531;-71
2021/06/29 12:00:22;;;;;;;7.40;6.80;;;23.70;99.90;;;;;;5026091;28;20494;-72
2021/06/29 12:02:50;;;;;;;6.50;6.00;;;24.10;99.90;;;;;;5032056;28;20475;-71
2021/06/29 12:05:32;;;;;;;7.10;6.40;;;24.60;99.90;;;;;;5022870;28;20423;-72
2021/06/29 12:08:00;;;;;;;6.97;6.47;;;25.10;99.90;;;;;;5032050;28;20818;-71
2021/06/29 12:10:30;;;;;;;7.73;6.97;;;25.50;99.90;;;;;;5038162;28;20461;-71
2021/06/29 12:13:04;;;;;;;7.20;6.50;;;25.80;99.90;;;;;;5032030;28;20815;-71
2021/06/29 12:15:31;;;;;;;6.20;5.60;;;25.90;99.90;;;;;;5026945;28;20499;-69
2021/06/29 12:18:00;;;;;;;5.77;5.37;;;26.20;99.90;;;;;;5032402;28;20806;-74
2021/06/29 12:20:53;;;;;;;5.77;5.37;;;26.50;99.90;;;;;;5022111;28;20407;-72
2021/06/29 12:23:25;;;;;;;6.10;5.50;;;26.70;99.90;;;;;;5024863;28;20451;-72
2021/06/29 12:25:59;;;;;;;5.80;5.40;;;26.90;99.90;;;;;;5033588;28;20438;-73
2021/06/29 12:28:31;;;;;;;7.93;5.77;;;27.10;99.90;;;;;;5032757;28;20458;-74
2021/06/29 12:31:01;;;;;;;7.47;6.87;;;27.20;99.90;;;;;;5032621;28;20401;-75
2021/06/29 12:33:34;;;;;;;7.03;6.50;;;27.50;99.90;;;;;;5031466;28;20937;-74
2021/06/29 12:36:21;;;;;;;7.20;6.60;;;27.70;99.90;;;;;;5031820;28;20767;-75
2021/06/29 12:38:55;;;;;;;7.13;6.43;;;27.70;99.90;;;;;;5031451;28;20405;-74
2021/06/29 12:41:26;;;;;;;7.57;7.00;;;27.60;99.90;;;;;;5031442;28;20465;-74
2021/06/29 12:44:00;;;;;;;8.70;8.00;;;27.40;99.90;;;;;;5026912;28;20430;-73
2021/06/29 12:46:47;;;;;;;9.97;9.27;;;27.50;99.90;;;;;;5026398;28;20451;-74
2021/06/29 12:49:19;;;;;;;9.10;8.30;;;27.90;99.90;;;;;;5031043;28;20465;-74
2021/06/29 12:52:00;;;;;;;9.77;8.67;;;28.20;99.90;;;;;;5031322;28;20433;-72